createdAt,value
2018-02-14T00:02:07.064Z,1.20
2018-02-14T00:04:34.551Z,1.20
2018-02-14T00:07:02.823Z,1.10
2018-02-14T00:09:30.303Z,1.10
2018-02-14T00:11:58.557Z,1.00
2018-02-14T00:14:26.044Z,1.00
2018-02-14T00:16:53.530Z,1.00
2018-02-14T00:19:21.022Z,1.00
2018-02-14T00:21:48.502Z,0.90
2018-02-14T00:24:15.997Z,0.80
2018-02-14T00:26:43.471Z,0.80
2018-02-14T00:29:10.971Z,0.90
2018-02-14T00:31:38.446Z,0.80
2018-02-14T00:34:05.938Z,0.80
2018-02-14T00:36:33.406Z,0.80
2018-02-14T00:39:01.663Z,0.90
2018-02-14T00:41:29.146Z,0.90
2018-02-14T00:43:56.647Z,0.90
2018-02-14T00:46:24.118Z,0.90
2018-02-14T00:48:51.607Z,0.90
2018-02-14T00:51:19.079Z,1.00
2018-02-14T00:53:46.579Z,0.90
2018-02-14T00:56:14.064Z,0.90
2018-02-14T00:58:41.563Z,1.00
2018-02-14T01:01:09.035Z,1.00
2018-02-14T01:03:36.527Z,1.00
2018-02-14T01:06:04.004Z,0.90
2018-02-14T01:08:31.514Z,0.90
2018-02-14T01:10:58.995Z,1.00
2018-02-14T01:13:27.262Z,1.00
2018-02-14T01:15:54.736Z,1.00
2018-02-14T01:18:22.230Z,1.00
2018-02-14T01:20:50.483Z,0.50
2018-02-14T01:23:17.983Z,0.50
2018-02-14T01:25:46.232Z,0.30
2018-02-14T01:28:13.732Z,0.30
2018-02-14T01:30:41.214Z,0.30
2018-02-14T01:33:09.475Z,0.10
2018-02-14T01:35:36.954Z,0.10
2018-02-14T01:38:04.447Z,0.20
2018-02-14T01:40:32.690Z,0.10
2018-02-14T01:43:00.187Z,0.00
2018-02-14T01:45:27.667Z,0.10
2018-02-14T01:47:55.911Z,0.10
2018-02-14T01:50:29.374Z,0.10
2018-02-14T01:52:56.850Z,0.20
2018-02-14T01:55:24.344Z,0.10
2018-02-14T01:57:51.824Z,0.10
2018-02-14T02:00:19.318Z,0.10
2018-02-14T02:02:46.801Z,0.10
2018-02-14T02:05:14.292Z,0.10
2018-02-14T02:07:41.775Z,0.10
2018-02-14T02:10:09.279Z,0.10
2018-02-14T02:12:36.760Z,0.10
2018-02-14T02:15:04.266Z,0.10
2018-02-14T02:17:32.520Z,0.20
2018-02-14T02:20:00.017Z,0.10
2018-02-14T02:22:28.281Z,0.20
2018-02-14T02:24:55.775Z,0.10
2018-02-14T02:27:23.252Z,0.10
2018-02-14T02:29:51.511Z,0.00
2018-02-14T02:32:18.991Z,-0.10
2018-02-14T02:34:46.492Z,0.00
2018-02-14T02:37:14.735Z,0.10
2018-02-14T02:39:54.038Z,0.10
2018-02-14T02:42:21.515Z,0.10
2018-02-14T02:44:49.007Z,0.10
2018-02-14T02:47:16.484Z,0.20
2018-02-14T02:49:43.984Z,0.20
2018-02-14T02:52:12.235Z,0.20
2018-02-14T02:54:39.725Z,0.10
2018-02-14T02:57:07.208Z,0.10
2018-02-14T02:59:34.707Z,0.00
2018-02-14T03:02:02.190Z,-0.10
2018-02-14T03:04:29.698Z,-0.20
2018-02-14T03:06:57.178Z,-0.10
2018-02-14T03:09:24.896Z,-0.20
2018-02-14T03:11:52.375Z,-0.30
2018-02-14T03:14:19.874Z,-0.30
2018-02-14T03:16:47.346Z,-0.30
2018-02-14T03:19:14.847Z,-0.20
2018-02-14T03:21:42.331Z,-0.20
2018-02-14T03:24:10.594Z,-0.30
2018-02-14T03:26:38.079Z,-0.30
2018-02-14T03:29:05.580Z,-0.30
2018-02-14T03:31:33.064Z,-0.30
2018-02-14T03:34:00.571Z,-0.40
2018-02-14T03:36:28.048Z,-0.60
2018-02-14T03:38:55.551Z,-0.60
2018-02-14T03:41:23.047Z,-0.60
2018-02-14T03:43:50.542Z,-0.60
2018-02-14T03:46:18.022Z,-0.60
2018-02-14T03:48:45.527Z,-0.60
2018-02-14T03:51:13.775Z,-0.60
2018-02-14T03:53:41.284Z,-0.70
2018-02-14T03:56:08.774Z,-0.70
2018-02-14T03:58:36.287Z,-0.60
2018-02-14T04:01:03.771Z,-0.60
2018-02-14T04:03:31.932Z,-0.60
2018-02-14T04:05:59.434Z,-0.60
2018-02-14T04:08:26.923Z,-0.50
2018-02-14T04:10:55.215Z,-0.50
2018-02-14T04:13:23.460Z,-0.50
2018-02-14T04:15:50.971Z,-0.60
2018-02-14T04:18:19.231Z,-0.50
2018-02-14T04:20:46.744Z,-0.60
2018-02-14T04:23:14.234Z,-0.50
2018-02-14T04:25:41.744Z,-0.50
2018-02-14T04:28:12.843Z,-0.50
2018-02-14T04:30:40.338Z,-0.50
2018-02-14T04:33:07.830Z,-0.40
2018-02-14T04:35:35.345Z,-0.50
2018-02-14T04:38:02.841Z,-0.40
2018-02-14T04:40:30.357Z,-0.40
2018-02-14T04:42:58.619Z,-0.40
2018-02-14T04:45:26.119Z,-0.40
2018-02-14T04:47:54.391Z,-0.50
2018-02-14T04:50:21.943Z,-0.50
2018-02-14T04:52:49.429Z,-0.50
2018-02-14T04:55:16.935Z,-0.50
2018-02-14T04:57:44.442Z,-0.50
2018-02-14T05:00:11.957Z,-0.60
2018-02-14T05:02:39.438Z,-0.60
2018-02-14T05:05:07.710Z,-0.60
2018-02-14T05:07:35.195Z,-0.60
2018-02-14T05:10:03.466Z,-0.60
2018-02-14T05:12:30.951Z,-0.60
2018-02-14T05:14:59.214Z,-0.60
2018-02-14T05:17:26.697Z,-0.60
2018-02-14T05:19:54.207Z,-0.40
2018-02-14T05:22:21.771Z,-0.40
2018-02-14T05:24:49.283Z,-0.30
2018-02-14T05:27:16.779Z,-0.40
2018-02-14T05:29:44.283Z,-0.50
2018-02-14T05:32:11.774Z,-0.60
2018-02-14T05:34:39.272Z,-0.70
2018-02-14T05:37:06.768Z,-0.70
2018-02-14T05:39:34.270Z,-0.70
2018-02-14T05:42:01.759Z,-0.70
2018-02-14T05:44:29.262Z,-0.70
2018-02-14T05:46:56.751Z,-0.60
2018-02-14T05:49:25.015Z,-0.60
2018-02-14T05:51:52.506Z,-0.60
2018-02-14T05:54:20.778Z,-0.60
2018-02-14T05:56:48.255Z,-0.70
2018-02-14T05:59:15.751Z,-0.60
2018-02-14T06:01:43.996Z,-0.50
2018-02-14T06:04:11.515Z,-0.60
2018-02-14T06:06:38.994Z,-0.40
2018-02-14T06:09:06.481Z,-0.40
2018-02-14T06:11:33.984Z,-0.50
2018-02-14T06:14:01.476Z,-0.50
2018-02-14T06:16:29.757Z,-0.60
2018-02-14T06:18:57.251Z,-0.60
2018-02-14T06:21:24.763Z,-0.60
2018-02-14T06:23:52.258Z,-0.80
2018-02-14T06:26:19.760Z,-0.80
2018-02-14T06:28:47.251Z,-0.80
2018-02-14T06:31:14.766Z,-0.80
2018-02-14T06:33:42.259Z,-0.80
2018-02-14T06:36:10.576Z,-1.00
2018-02-14T06:38:38.795Z,-1.00
2018-02-14T06:41:06.290Z,-1.00
2018-02-14T06:43:33.768Z,-1.10
2018-02-14T06:46:01.297Z,-1.10
2018-02-14T06:48:28.771Z,-1.10
2018-02-14T06:50:56.279Z,-1.10
2018-02-14T06:53:24.534Z,-1.10
2018-02-14T06:55:52.035Z,-1.20
2018-02-14T06:58:19.515Z,-1.10
2018-02-14T07:00:47.014Z,-1.00
2018-02-14T07:03:14.491Z,-1.00
2018-02-14T07:05:42.013Z,-1.00
2018-02-14T07:08:09.504Z,-1.00
2018-02-14T07:10:37.010Z,-1.00
2018-02-14T07:13:04.496Z,-0.90
2018-02-14T07:15:32.003Z,-1.00
2018-02-14T07:18:00.271Z,-1.10
2018-02-14T07:20:27.767Z,-1.10
2018-02-14T07:22:56.011Z,-1.10
2018-02-14T07:25:23.514Z,-1.10
2018-02-14T07:27:50.995Z,-1.00
2018-02-14T07:30:19.271Z,-0.80
2018-02-14T07:32:46.754Z,-0.90
2018-02-14T07:35:15.022Z,-0.80
2018-02-14T07:37:42.512Z,-0.90
2018-02-14T07:40:10.776Z,-0.60
2018-02-14T07:42:38.256Z,-0.60
2018-02-14T07:45:05.765Z,-0.50
2018-02-14T07:47:33.251Z,-0.50
2018-02-14T07:50:00.734Z,-0.50
2018-02-14T07:52:28.251Z,-0.40
2018-02-14T07:54:56.499Z,-0.30
2018-02-14T07:57:24.001Z,-0.30
2018-02-14T07:59:52.252Z,0.20
2018-02-14T08:02:19.759Z,0.10
2018-02-14T08:04:47.235Z,0.40
2018-02-14T08:07:15.499Z,0.70
2018-02-14T08:09:42.977Z,0.60
2018-02-14T08:12:10.475Z,0.80
2018-02-14T08:14:37.992Z,1.00
2018-02-14T08:17:05.505Z,1.10
2018-02-14T08:19:32.957Z,1.20
2018-02-14T08:22:00.463Z,1.50
2018-02-14T08:24:27.951Z,1.80
2018-02-14T08:26:55.447Z,1.80
2018-02-14T08:29:22.928Z,1.80
2018-02-14T08:31:50.425Z,2.00
2018-02-14T08:34:18.698Z,2.30
2018-02-14T08:36:46.177Z,2.30
2018-02-14T08:39:13.699Z,2.60
2018-02-14T08:41:41.171Z,2.80
2018-02-14T08:44:08.649Z,3.00
2018-02-14T08:46:36.154Z,3.10
2018-02-14T08:49:03.643Z,3.10
2018-02-14T08:51:31.150Z,3.20
2018-02-14T08:53:58.691Z,3.30
2018-02-14T08:56:26.182Z,3.50
2018-02-14T08:58:53.654Z,3.70
2018-02-14T09:01:21.154Z,3.60
2018-02-14T09:03:48.639Z,3.90
2018-02-14T09:06:16.147Z,4.00
2018-02-14T09:08:43.635Z,3.90
2018-02-14T09:11:11.131Z,4.10
2018-02-14T09:13:38.618Z,4.30
2018-02-14T09:16:06.114Z,4.70
2018-02-14T09:18:33.599Z,4.80
2018-02-14T09:21:01.094Z,5.10
2018-02-14T09:23:28.580Z,5.40
2018-02-14T09:25:56.083Z,5.50
2018-02-14T09:28:24.327Z,5.80
2018-02-14T09:30:51.835Z,5.80
2018-02-14T09:33:19.318Z,5.90
2018-02-14T09:35:47.578Z,5.70
2018-02-14T09:38:15.060Z,5.60
2018-02-14T09:40:42.551Z,5.70
2018-02-14T09:43:10.034Z,5.70
2018-02-14T09:45:37.535Z,5.90
2018-02-14T09:48:05.010Z,6.00
2018-02-14T09:50:32.485Z,6.00
2018-02-14T09:52:59.979Z,6.10
2018-02-14T09:55:27.454Z,5.90
2018-02-14T09:57:55.719Z,6.00
2018-02-14T10:00:23.195Z,5.90
2018-02-14T10:02:50.687Z,6.00
2018-02-14T10:05:18.932Z,6.20
2018-02-14T10:07:46.438Z,6.10
2018-02-14T10:10:13.922Z,6.40
2018-02-14T10:12:41.434Z,6.50
2018-02-14T10:15:08.910Z,6.60
2018-02-14T10:17:36.410Z,6.80
2018-02-14T10:20:03.887Z,6.70
2018-02-14T10:22:32.186Z,7.00
2018-02-14T10:24:59.643Z,6.90
2018-02-14T10:27:27.143Z,7.10
2018-02-14T10:29:54.631Z,7.10
2018-02-14T10:32:22.122Z,7.20
2018-02-14T10:34:49.607Z,7.30
2018-02-14T10:37:17.111Z,7.40
2018-02-14T10:39:45.349Z,7.40
2018-02-14T10:42:12.853Z,7.30
2018-02-14T10:44:40.330Z,7.60
2018-02-14T10:47:07.828Z,7.60
2018-02-14T10:49:35.307Z,7.70
2018-02-14T10:52:02.807Z,7.60
2018-02-14T10:54:30.291Z,7.60
2018-02-14T10:56:57.798Z,7.70
2018-02-14T10:59:25.284Z,7.70
2018-02-14T11:01:58.478Z,7.90
2018-02-14T11:04:25.954Z,8.00
2018-02-14T11:06:53.454Z,7.70
2018-02-14T11:09:20.932Z,7.60
2018-02-14T11:11:48.430Z,7.40
2018-02-14T11:14:16.678Z,8.00
2018-02-14T11:16:44.184Z,8.00
2018-02-14T11:19:12.426Z,7.70
2018-02-14T11:21:39.927Z,7.60
2018-02-14T11:24:07.407Z,7.50
2018-02-14T11:26:34.902Z,7.70
2018-02-14T11:29:03.148Z,7.90
2018-02-14T11:31:30.657Z,7.80
2018-02-14T11:33:58.911Z,7.60
2018-02-14T11:36:26.420Z,7.50
2018-02-14T11:38:53.911Z,7.50
2018-02-14T11:41:21.411Z,7.50
2018-02-14T11:43:48.897Z,7.30
2018-02-14T11:46:16.422Z,7.40
2018-02-14T11:48:43.903Z,7.10
2018-02-14T11:51:11.389Z,6.80
2018-02-14T11:53:38.880Z,6.50
2018-02-14T11:56:06.346Z,6.70
2018-02-14T11:58:33.846Z,6.90
2018-02-14T12:01:02.092Z,7.50
2018-02-14T12:03:29.587Z,7.50
2018-02-14T12:05:57.067Z,7.60
2018-02-14T12:08:25.334Z,7.80
2018-02-14T12:10:52.814Z,7.70
2018-02-14T12:13:20.312Z,7.40
2018-02-14T12:15:47.781Z,7.40
2018-02-14T12:18:15.274Z,7.50
2018-02-14T12:20:42.754Z,7.50
2018-02-14T12:23:10.254Z,7.10
2018-02-14T12:25:37.732Z,6.90
2018-02-14T12:28:05.235Z,6.90
2018-02-14T12:30:32.716Z,6.60
2018-02-14T12:33:00.978Z,6.50
2018-02-14T12:35:29.222Z,6.80
2018-02-14T12:37:56.714Z,6.70
2018-02-14T12:40:24.191Z,7.20
2018-02-14T12:42:51.687Z,7.40
2018-02-14T12:45:19.159Z,7.50
2018-02-14T12:47:46.659Z,7.50
2018-02-14T12:50:14.131Z,7.50
2018-02-14T12:52:41.623Z,7.30
2018-02-14T12:55:09.106Z,7.30
2018-02-14T12:57:36.607Z,7.40
2018-02-14T13:00:04.083Z,7.30
2018-02-14T13:02:31.584Z,7.00
2018-02-14T13:04:59.069Z,6.80
2018-02-14T13:07:26.575Z,6.90
2018-02-14T13:09:54.817Z,7.40
2018-02-14T13:12:22.310Z,7.40
2018-02-14T13:14:49.788Z,7.30
2018-02-14T13:17:17.282Z,6.90
2018-02-14T13:19:44.762Z,6.90
2018-02-14T13:22:12.263Z,7.00
2018-02-14T13:24:39.747Z,6.90
2018-02-14T13:27:07.238Z,7.10
2018-02-14T13:29:35.487Z,7.10
2018-02-14T13:32:02.992Z,7.00
2018-02-14T13:34:30.466Z,7.10
2018-02-14T13:36:57.971Z,7.10
2018-02-14T13:39:25.447Z,7.30
2018-02-14T13:41:52.939Z,7.40
2018-02-14T13:44:20.415Z,7.50
2018-02-14T13:46:47.889Z,7.50
2018-02-14T13:49:15.400Z,7.50
2018-02-14T13:51:42.874Z,7.50
2018-02-14T13:54:11.136Z,6.90
2018-02-14T13:56:38.614Z,6.80
2018-02-14T13:59:06.883Z,7.00
2018-02-14T14:01:34.364Z,7.00
2018-02-14T14:04:01.865Z,6.60
2018-02-14T14:06:29.349Z,6.50
2018-02-14T14:08:56.846Z,6.70
2018-02-14T14:11:24.315Z,7.00
2018-02-14T14:13:51.803Z,7.00
2018-02-14T14:16:19.279Z,7.10
2018-02-14T14:18:46.779Z,6.90
2018-02-14T14:21:15.015Z,6.90
2018-02-14T14:23:42.515Z,6.90
2018-02-14T14:26:09.986Z,7.10
2018-02-14T14:28:37.488Z,7.20
2018-02-14T14:31:04.954Z,7.10
2018-02-14T14:33:32.464Z,6.90
2018-02-14T14:35:59.938Z,6.90
2018-02-14T14:38:27.434Z,6.70
2018-02-14T14:40:54.908Z,6.60
2018-02-14T14:43:23.207Z,6.30
2018-02-14T14:45:50.659Z,6.30
2018-02-14T14:48:18.163Z,6.20
2018-02-14T14:50:45.642Z,6.30
2018-02-14T14:53:13.142Z,6.40
2018-02-14T14:55:40.618Z,6.40
2018-02-14T14:58:08.112Z,6.40
2018-02-14T15:00:35.592Z,6.40
2018-02-14T15:03:03.846Z,6.40
2018-02-14T15:05:31.337Z,6.30
2018-02-14T15:07:58.836Z,6.50
2018-02-14T15:10:26.321Z,6.60
2018-02-14T15:12:53.871Z,6.60
2018-02-14T15:15:22.111Z,6.50
2018-02-14T15:17:49.598Z,6.40
2018-02-14T15:20:18.683Z,6.40
2018-02-14T15:22:46.190Z,6.40
2018-02-14T15:25:14.491Z,6.20
2018-02-14T15:27:42.083Z,6.10
2018-02-14T15:30:09.570Z,6.10
2018-02-14T15:32:37.071Z,6.00
2018-02-14T15:35:04.547Z,6.00
2018-02-14T15:37:32.040Z,6.00
2018-02-14T15:40:00.293Z,5.80
2018-02-14T15:42:27.786Z,5.80
2018-02-14T15:44:55.267Z,5.90
2018-02-14T15:47:23.530Z,5.80
2018-02-14T15:49:51.012Z,5.70
2018-02-14T15:52:18.490Z,5.60
2018-02-14T15:54:46.759Z,5.60
2018-02-14T15:57:14.259Z,5.50
2018-02-14T15:59:42.535Z,5.70
2018-02-14T16:02:10.831Z,5.60
2018-02-14T16:04:38.355Z,5.60
2018-02-14T16:07:05.831Z,5.60
2018-02-14T16:09:33.323Z,5.60
2018-02-14T16:12:00.808Z,5.70
2018-02-14T16:14:29.128Z,5.70
2018-02-14T16:16:57.359Z,5.50
2018-02-14T16:19:24.882Z,5.40
2018-02-14T16:21:52.374Z,5.30
2018-02-14T16:24:19.883Z,5.20
2018-02-14T16:26:47.372Z,5.10
2018-02-14T16:29:15.643Z,5.00
2018-02-14T16:31:43.133Z,5.00
2018-02-14T16:34:11.415Z,4.90
2018-02-14T16:36:39.659Z,4.90
2018-02-14T16:39:07.167Z,4.80
2018-02-14T16:41:35.430Z,4.70
2018-02-14T16:44:02.931Z,4.60
2018-02-14T16:46:31.188Z,4.60
2018-02-14T16:48:58.694Z,4.60
2018-02-14T16:51:26.951Z,4.60
2018-02-14T16:53:54.450Z,4.50
2018-02-14T16:56:22.700Z,4.40
2018-02-14T16:58:50.217Z,4.40
2018-02-14T17:01:18.480Z,4.30
2018-02-14T17:03:45.990Z,4.30
2018-02-14T17:06:13.483Z,4.20
2018-02-14T17:08:40.994Z,4.20
2018-02-14T17:11:08.471Z,4.10
2018-02-14T17:13:36.731Z,4.00
2018-02-14T17:16:04.211Z,3.90
2018-02-14T17:18:31.714Z,3.90
2018-02-14T17:20:59.971Z,4.00
2018-02-14T17:23:27.474Z,3.90
2018-02-14T17:25:55.727Z,4.00
2018-02-14T17:28:23.235Z,3.90
2018-02-14T17:30:51.483Z,3.90
2018-02-14T17:33:19.012Z,3.90
2018-02-14T17:35:46.503Z,3.90
2018-02-14T17:38:14.004Z,3.80
2018-02-14T17:40:41.490Z,3.80
2018-02-14T17:43:09.761Z,3.70
2018-02-14T17:45:37.271Z,3.60
2018-02-14T17:48:04.755Z,3.60
2018-02-14T17:50:32.303Z,3.60
2018-02-14T17:52:59.811Z,3.60
2018-02-14T17:55:27.361Z,3.50
2018-02-14T17:57:54.850Z,3.50
2018-02-14T18:00:22.386Z,3.50
2018-02-14T18:02:50.635Z,3.50
2018-02-14T18:05:18.139Z,3.40
2018-02-14T18:07:46.387Z,3.50
2018-02-14T18:10:13.905Z,3.50
2018-02-14T18:12:41.394Z,3.60
2018-02-14T18:15:08.968Z,3.60
2018-02-14T18:17:36.458Z,3.60
2018-02-14T18:20:03.963Z,3.60
2018-02-14T18:22:31.445Z,3.60
2018-02-14T18:24:59.718Z,3.60
2018-02-14T18:27:27.986Z,3.70
2018-02-14T18:29:55.525Z,3.70
2018-02-14T18:32:23.020Z,3.80
2018-02-14T18:34:50.547Z,3.80
2018-02-14T18:37:18.035Z,3.80
2018-02-14T18:39:45.692Z,3.70
2018-02-14T18:42:13.243Z,3.80
2018-02-14T18:44:41.503Z,3.60
2018-02-14T18:47:09.013Z,3.50
2018-02-14T18:49:37.262Z,3.50
2018-02-14T18:52:04.762Z,3.50
2018-02-14T18:54:33.014Z,3.40
2018-02-14T18:57:00.547Z,3.30
2018-02-14T18:59:28.037Z,3.20
2018-02-14T19:01:55.543Z,3.10
2018-02-14T19:04:23.038Z,3.00
2018-02-14T19:06:51.306Z,2.90
2018-02-14T19:09:18.824Z,2.80
2018-02-14T19:11:46.324Z,2.90
2018-02-14T19:14:13.834Z,2.70
2018-02-14T19:16:42.106Z,2.60
2018-02-14T19:19:10.377Z,2.50
2018-02-14T19:21:37.872Z,2.40
2018-02-14T19:24:06.124Z,2.20
2018-02-14T19:26:33.619Z,2.10
2018-02-14T19:29:01.129Z,2.10
2018-02-14T19:31:28.619Z,2.00
2018-02-14T19:33:56.126Z,2.10
2018-02-14T19:36:23.610Z,2.20
2018-02-14T19:38:51.110Z,2.30
2018-02-14T19:41:18.595Z,2.20
2018-02-14T19:43:46.102Z,2.20
2018-02-14T19:46:13.592Z,2.10
2018-02-14T19:48:41.100Z,2.10
2018-02-14T19:51:08.586Z,2.10
2018-02-14T19:53:36.090Z,2.20
2018-02-14T19:56:03.575Z,2.20
2018-02-14T19:58:31.854Z,2.40
2018-02-14T20:00:59.335Z,2.40
2018-02-14T20:03:27.603Z,2.40
2018-02-14T20:05:55.083Z,2.40
2018-02-14T20:08:22.635Z,2.40
2018-02-14T20:10:50.857Z,2.50
2018-02-14T20:13:19.171Z,2.50
2018-02-14T20:15:47.390Z,2.30
2018-02-14T20:18:14.895Z,2.30
2018-02-14T20:20:43.148Z,2.20
2018-02-14T20:23:10.668Z,2.10
2018-02-14T20:25:38.146Z,2.00
2018-02-14T20:28:05.644Z,1.90
2018-02-14T20:30:33.126Z,1.90
2018-02-14T20:33:00.632Z,1.90
2018-02-14T20:35:28.114Z,1.90
2018-02-14T20:37:56.380Z,2.00
2018-02-14T20:40:23.859Z,1.90
2018-02-14T20:42:51.368Z,2.00
2018-02-14T20:45:18.864Z,2.00
2018-02-14T20:47:46.351Z,2.00
2018-02-14T20:50:13.852Z,2.10
2018-02-14T20:52:42.110Z,2.20
2018-02-14T20:55:09.616Z,2.10
2018-02-14T20:57:37.103Z,2.10
2018-02-14T21:00:04.604Z,2.10
2018-02-14T21:02:32.098Z,2.10
2018-02-14T21:04:59.616Z,2.20
2018-02-14T21:07:27.103Z,2.10
2018-02-14T21:09:54.620Z,2.00
2018-02-14T21:12:22.167Z,2.00
2018-02-14T21:14:49.675Z,1.90
2018-02-14T21:17:17.162Z,1.80
2018-02-14T21:19:44.671Z,1.80
2018-02-14T21:22:12.170Z,1.80
2018-02-14T21:24:39.679Z,1.80
2018-02-14T21:27:07.159Z,1.80
2018-02-14T21:29:34.664Z,1.80
2018-02-14T21:32:02.180Z,1.80
2018-02-14T21:34:30.461Z,1.70
2018-02-14T21:36:57.947Z,1.70
2018-02-14T21:39:25.454Z,1.60
2018-02-14T21:41:52.942Z,1.50
2018-02-14T21:44:20.445Z,1.50
2018-02-14T21:46:47.934Z,1.50
2018-02-14T21:49:15.448Z,1.50
2018-02-14T21:51:42.923Z,1.50
2018-02-14T21:54:10.427Z,1.50
2018-02-14T21:56:37.920Z,1.50
2018-02-14T21:59:05.418Z,1.50
2018-02-14T22:01:32.908Z,1.50
2018-02-14T22:04:00.411Z,1.50
2018-02-14T22:06:27.895Z,1.60
2018-02-14T22:08:55.402Z,1.60
2018-02-14T22:11:22.891Z,1.60
2018-02-14T22:13:50.396Z,1.60
2018-02-14T22:16:17.891Z,1.50
2018-02-14T22:18:45.399Z,1.50
2018-02-14T22:21:12.915Z,1.40
2018-02-14T22:23:40.423Z,1.40
2018-02-14T22:26:07.903Z,1.40
2018-02-14T22:28:35.402Z,1.40
2018-02-14T22:31:03.660Z,1.50
2018-02-14T22:33:31.609Z,1.40
2018-02-14T22:35:59.094Z,1.50
2018-02-14T22:38:26.615Z,1.40
2018-02-14T22:40:54.862Z,1.40
2018-02-14T22:43:22.379Z,1.40
2018-02-14T22:45:49.871Z,1.40
2018-02-14T22:48:17.363Z,1.40
2018-02-14T22:50:44.871Z,1.40
2018-02-14T22:53:12.359Z,1.40
2018-02-14T22:55:39.866Z,1.40
2018-02-14T22:58:07.351Z,1.50
2018-02-14T23:00:34.860Z,1.50
2018-02-14T23:03:03.107Z,1.60
2018-02-14T23:05:30.610Z,1.50
2018-02-14T23:07:58.863Z,1.60
2018-02-14T23:10:26.364Z,1.50
2018-02-14T23:12:54.618Z,1.80
2018-02-14T23:15:22.127Z,1.70
2018-02-14T23:17:50.383Z,1.80
2018-02-14T23:20:17.882Z,1.70
2018-02-14T23:22:46.135Z,1.80
2018-02-14T23:25:13.647Z,1.80
2018-02-14T23:27:41.900Z,1.70
2018-02-14T23:30:13.217Z,1.70
2018-02-14T23:32:40.696Z,1.80
2018-02-14T23:35:08.199Z,1.90
2018-02-14T23:37:35.678Z,1.90
2018-02-14T23:40:03.193Z,1.90
2018-02-14T23:42:30.675Z,1.80
2018-02-14T23:44:58.179Z,1.70
2018-02-14T23:47:25.662Z,1.70
2018-02-14T23:49:53.162Z,1.80
2018-02-14T23:52:21.407Z,1.70
2018-02-14T23:54:48.911Z,1.70
2018-02-14T23:57:16.391Z,1.70
2018-02-14T23:59:44.667Z,1.60
